Time;durP1;ratioP1;P1;durP2;ratioP2;P2;SDS_P1;SDS_P2;PMS_P1;PMS_P2;Temp;Humidity;BMP_temperature;BMP_pressure;BME280_temperature;BME280_humidity;BME280_pressure;Samples;Min_cycle;Max_cycle;Signal;HPM_P1;HPM_P2
2021/07/17 00:01:39;;;;;;;3.33;2.90;;;23.00;99.90;;;;;;5034467;28;20124;-74
2021/07/17 00:04:05;;;;;;;4.00;2.60;;;22.90;99.90;;;;;;5026469;28;20037;-74
2021/07/17 00:06:32;;;;;;;3.83;2.85;;;23.00;99.90;;;;;;5036056;28;20077;-74
2021/07/17 00:08:57;;;;;;;4.15;2.92;;;23.10;99.90;;;;;;5031601;28;20045;-74
2021/07/17 00:11:23;;;;;;;3.45;3.15;;;23.00;99.90;;;;;;5021046;28;20410;-73
2021/07/17 00:13:49;;;;;;;4.10;3.08;;;23.10;99.90;;;;;;5030939;28;20042;-74
2021/07/17 00:16:25;;;;;;;4.20;3.55;;;23.00;99.90;;;;;;5030512;28;20115;-74
2021/07/17 00:18:51;;;;;;;3.95;2.60;;;23.10;99.90;;;;;;5034273;28;20491;-74
2021/07/17 00:21:17;;;;;;;3.25;2.67;;;23.10;99.90;;;;;;5036292;28;20059;-75
2021/07/17 00:23:42;;;;;;;3.08;2.80;;;23.10;99.90;;;;;;5030158;28;20544;-75
2021/07/17 00:26:08;;;;;;;4.15;2.92;;;23.10;99.90;;;;;;5025798;28;20045;-75
2021/07/17 00:28:34;;;;;;;4.00;3.25;;;23.10;99.90;;;;;;5043156;28;20056;-74
2021/07/17 00:30:59;;;;;;;4.53;3.17;;;22.90;99.90;;;;;;5035028;28;20091;-76
2021/07/17 00:33:25;;;;;;;4.85;3.30;;;23.00;99.90;;;;;;5035558;28;20052;-74
2021/07/17 00:35:50;;;;;;;3.78;3.10;;;23.10;99.90;;;;;;5022530;28;20384;-75
2021/07/17 00:38:16;;;;;;;3.80;3.00;;;22.90;99.90;;;;;;5047007;28;20119;-74
2021/07/17 00:44:03;;;;;;;3.70;3.40;;;23.00;99.90;;;;;;4982291;28;20101;-74
2021/07/17 00:46:30;;;;;;;4.38;3.10;;;23.00;99.90;;;;;;5036862;28;20474;-74
2021/07/17 00:48:56;;;;;;;5.03;3.45;;;23.00;99.90;;;;;;5044982;28;20393;-74
2021/07/17 00:51:25;;;;;;;5.07;3.08;;;23.00;99.90;;;;;;5038495;28;20127;-69
2021/07/17 00:53:51;;;;;;;4.72;3.10;;;22.90;99.90;;;;;;5027395;28;20034;-74
2021/07/17 00:56:35;;;;;;;2.83;2.63;;;22.90;99.90;;;;;;5012278;28;20136;-75
2021/07/17 00:59:03;;;;;;;4.10;2.63;;;22.90;99.90;;;;;;4994124;28;20037;-74
2021/07/17 01:01:31;;;;;;;5.28;2.92;;;22.70;99.90;;;;;;5037177;28;20059;-74
2021/07/17 01:03:57;;;;;;;4.85;2.90;;;22.80;99.90;;;;;;5041973;28;20041;-75
2021/07/17 01:06:23;;;;;;;6.10;2.72;;;22.90;99.90;;;;;;5034580;28;20091;-74
2021/07/17 01:08:49;;;;;;;2.88;2.58;;;22.90;99.90;;;;;;5035919;28;20040;-75
2021/07/17 01:11:14;;;;;;;4.22;2.55;;;22.80;99.90;;;;;;5044581;28;20073;-74
2021/07/17 01:13:40;;;;;;;2.80;2.22;;;22.90;99.90;;;;;;5043637;28;20040;-75
2021/07/17 01:16:06;;;;;;;2.63;2.38;;;22.80;99.90;;;;;;5036306;28;20033;-74
2021/07/17 01:18:37;;;;;;;2.20;2.00;;;22.90;99.90;;;;;;5041007;28;20077;-74
2021/07/17 01:21:03;;;;;;;2.60;2.30;;;22.90;99.90;;;;;;5034416;28;20057;-74
2021/07/17 01:23:29;;;;;;;4.60;2.40;;;22.90;99.90;;;;;;5043442;28;20033;-74
2021/07/17 01:25:55;;;;;;;5.15;2.20;;;22.80;99.90;;;;;;5039003;28;20037;-74
2021/07/17 01:28:20;;;;;;;3.78;2.67;;;22.80;99.90;;;;;;5025449;28;20037;-74
2021/07/17 01:30:46;;;;;;;2.42;2.10;;;22.90;99.90;;;;;;5030218;28;20127;-74
2021/07/17 01:33:12;;;;;;;5.13;2.60;;;22.90;99.90;;;;;;5032718;28;20049;-75
2021/07/17 01:35:37;;;;;;;3.20;2.22;;;22.80;99.90;;;;;;5028520;28;20041;-74
2021/07/17 01:38:05;;;;;;;3.15;2.42;;;22.80;99.90;;;;;;5042598;28;20044;-75
2021/07/17 01:40:31;;;;;;;2.70;2.42;;;22.80;99.90;;;;;;5039052;28;20045;-74
2021/07/17 01:42:59;;;;;;;4.40;2.45;;;22.80;99.90;;;;;;5036628;28;20079;-74
2021/07/17 01:45:39;;;;;;;2.40;2.20;;;22.80;99.90;;;;;;5041274;28;20037;-74
2021/07/17 01:51:26;;;;;;;3.47;2.65;;;22.80;99.90;;;;;;4969400;28;20096;-74
2021/07/17 01:53:57;;;;;;;2.97;2.45;;;22.70;99.90;;;;;;5027543;28;20590;-67
2021/07/17 01:56:25;;;;;;;3.97;2.60;;;22.80;99.90;;;;;;5030240;28;20039;-69
2021/07/17 01:58:50;;;;;;;3.45;2.83;;;22.80;99.90;;;;;;5027649;28;20471;-74
2021/07/17 02:01:17;;;;;;;2.78;2.40;;;22.80;99.90;;;;;;5032964;28;20084;-75
2021/07/17 02:03:46;;;;;;;2.80;2.53;;;22.80;99.90;;;;;;5038691;28;20075;-75
2021/07/17 02:06:29;;;;;;;5.10;2.70;;;22.80;99.90;;;;;;5037836;28;20239;-75
2021/07/17 02:08:56;;;;;;;3.85;2.88;;;22.80;99.90;;;;;;5060186;28;20091;-75
2021/07/17 02:11:22;;;;;;;5.38;3.15;;;22.60;99.90;;;;;;5029305;28;20120;-57
2021/07/17 02:13:50;;;;;;;4.03;2.40;;;22.70;99.90;;;;;;5040814;28;20036;-74
2021/07/17 02:16:17;;;;;;;3.00;2.80;;;22.60;99.90;;;;;;5048100;28;20037;-75
2021/07/17 02:18:43;;;;;;;3.50;3.03;;;22.50;99.90;;;;;;5047423;28;20088;-74
2021/07/17 02:21:09;;;;;;;3.65;3.00;;;22.60;99.90;;;;;;5024056;28;20049;-74
2021/07/17 02:23:36;;;;;;;3.53;3.22;;;22.60;99.90;;;;;;5048952;28;20033;-74
2021/07/17 02:26:04;;;;;;;5.00;3.25;;;22.60;99.90;;;;;;5028028;28;20483;-74
2021/07/17 02:28:29;;;;;;;4.57;2.72;;;22.60;99.90;;;;;;5035187;28;20574;-74
2021/07/17 02:30:55;;;;;;;4.55;2.67;;;22.60;99.90;;;;;;5037711;28;20033;-76
2021/07/17 02:33:21;;;;;;;3.88;3.17;;;22.60;99.90;;;;;;5051231;28;20498;-75
2021/07/17 02:35:47;;;;;;;5.28;2.83;;;22.50;99.90;;;;;;5045937;28;20072;-74
2021/07/17 02:38:13;;;;;;;3.38;2.95;;;22.50;99.90;;;;;;5050205;28;20414;-74
2021/07/17 02:40:38;;;;;;;4.45;2.83;;;22.50;99.90;;;;;;5032975;28;20053;-75
2021/07/17 02:43:04;;;;;;;3.40;3.10;;;22.50;99.90;;;;;;5040215;28;20115;-74
2021/07/17 02:45:30;;;;;;;4.68;3.42;;;22.50;99.90;;;;;;5029230;28;20038;-74
2021/07/17 02:47:56;;;;;;;4.47;3.13;;;22.40;99.90;;;;;;5029555;28;20060;-74
2021/07/17 02:50:22;;;;;;;4.75;3.30;;;22.40;99.90;;;;;;5031134;28;22372;-74
2021/07/17 02:52:47;;;;;;;3.83;3.20;;;22.40;99.90;;;;;;5037022;28;20041;-75
2021/07/17 02:55:14;;;;;;;5.13;3.05;;;22.40;99.90;;;;;;5031699;28;20037;-74
2021/07/17 02:57:40;;;;;;;7.03;3.55;;;22.40;99.90;;;;;;5031290;28;20049;-75
2021/07/17 03:00:08;;;;;;;3.95;2.60;;;22.30;99.90;;;;;;5039459;28;20770;-74
2021/07/17 03:02:33;;;;;;;3.67;3.38;;;22.30;99.90;;;;;;5035687;28;20029;-74
2021/07/17 03:04:59;;;;;;;6.75;3.22;;;22.40;99.90;;;;;;5050810;28;20052;-74
2021/07/17 03:07:24;;;;;;;3.13;2.92;;;22.30;99.90;;;;;;5042140;28;20038;-74
2021/07/17 03:09:50;;;;;;;3.83;3.10;;;22.30;99.90;;;;;;5051005;28;20367;-74
2021/07/17 03:12:16;;;;;;;5.70;3.70;;;22.30;99.90;;;;;;5036911;28;20049;-75
2021/07/17 03:14:42;;;;;;;6.82;3.45;;;22.30;99.90;;;;;;5032295;28;22227;-74
2021/07/17 03:17:07;;;;;;;3.55;3.17;;;22.30;99.90;;;;;;5027579;28;20049;-75
2021/07/17 03:19:33;;;;;;;4.57;3.30;;;22.30;99.90;;;;;;5047933;28;20442;-75
2021/07/17 03:21:59;;;;;;;4.00;3.10;;;22.20;99.90;;;;;;5034533;28;20060;-74
2021/07/17 03:24:25;;;;;;;3.97;3.63;;;22.30;99.90;;;;;;5040228;28;20052;-74
2021/07/17 03:26:50;;;;;;;5.78;3.47;;;22.30;99.90;;;;;;5041080;28;20440;-75
2021/07/17 03:29:16;;;;;;;3.95;3.28;;;22.20;99.90;;;;;;5039420;28;20041;-75
2021/07/17 03:31:41;;;;;;;4.32;3.83;;;22.20;99.90;;;;;;5044912;28;20037;-75
2021/07/17 03:34:07;;;;;;;5.15;3.60;;;22.10;99.90;;;;;;5034356;28;20368;-74
2021/07/17 03:36:33;;;;;;;4.10;3.22;;;22.10;99.90;;;;;;5041496;28;20395;-74
2021/07/17 03:38:58;;;;;;;4.50;3.80;;;22.10;99.90;;;;;;5025098;28;20064;-74
2021/07/17 03:41:24;;;;;;;6.65;4.18;;;22.00;99.90;;;;;;5034466;28;20061;-74
2021/07/17 03:43:49;;;;;;;4.32;3.80;;;22.10;99.90;;;;;;5025920;28;20041;-74
2021/07/17 03:46:15;;;;;;;4.05;3.65;;;22.00;99.90;;;;;;5032584;28;20037;-74
2021/07/17 03:48:41;;;;;;;6.15;4.43;;;22.10;99.90;;;;;;5034617;28;20041;-75
2021/07/17 03:51:07;;;;;;;8.95;4.80;;;22.00;99.90;;;;;;5051203;28;20048;-75
2021/07/17 03:53:33;;;;;;;4.65;4.07;;;22.00;99.90;;;;;;5046450;28;20029;-74
2021/07/17 03:55:58;;;;;;;5.40;4.05;;;22.00;99.90;;;;;;5047565;28;20418;-75
2021/07/17 03:58:24;;;;;;;4.95;4.28;;;22.00;99.90;;;;;;5040090;28;20049;-75
2021/07/17 04:00:50;;;;;;;4.55;4.10;;;22.00;99.90;;;;;;5039241;28;20045;-74
2021/07/17 04:03:16;;;;;;;4.00;3.70;;;22.00;99.90;;;;;;5031768;28;20033;-75
2021/07/17 04:05:42;;;;;;;6.47;5.15;;;21.90;99.90;;;;;;5031970;28;20059;-75
2021/07/17 04:08:08;;;;;;;6.93;4.75;;;22.00;99.90;;;;;;5046059;28;20051;-76
2021/07/17 04:10:33;;;;;;;5.63;4.10;;;21.90;99.90;;;;;;5029925;28;20507;-76
2021/07/17 04:12:59;;;;;;;4.40;3.72;;;21.90;99.90;;;;;;5027110;28;20042;-73
2021/07/17 04:15:24;;;;;;;4.90;4.30;;;21.90;99.90;;;;;;5047627;28;20123;-73
2021/07/17 04:17:50;;;;;;;4.88;4.40;;;21.90;99.90;;;;;;5048916;28;20048;-73
2021/07/17 04:20:16;;;;;;;7.63;4.22;;;21.90;99.90;;;;;;5029468;28;20051;-73
2021/07/17 04:22:42;;;;;;;5.60;3.97;;;21.90;99.90;;;;;;5029559;28;20506;-74
2021/07/17 04:25:08;;;;;;;7.18;4.43;;;21.90;99.90;;;;;;5037793;28;20033;-74
2021/07/17 04:27:35;;;;;;;4.47;4.03;;;21.90;99.90;;;;;;5040095;28;20041;-73
2021/07/17 04:30:00;;;;;;;3.83;3.42;;;21.90;99.90;;;;;;5038463;28;20124;-74
2021/07/17 04:32:26;;;;;;;5.45;3.75;;;21.90;99.90;;;;;;5065064;28;20132;-75
2021/07/17 04:34:51;;;;;;;4.68;4.10;;;21.90;99.90;;;;;;5029994;28;20041;-74
2021/07/17 04:37:20;;;;;;;4.32;3.92;;;21.90;99.90;;;;;;5036575;28;20041;-75
2021/07/17 04:39:49;;;;;;;3.72;3.42;;;21.90;99.90;;;;;;5027009;28;20072;-74
2021/07/17 04:42:16;;;;;;;5.72;4.10;;;21.90;99.90;;;;;;5035514;28;20379;-74
2021/07/17 04:44:42;;;;;;;6.60;3.70;;;21.80;99.90;;;;;;5034078;28;20120;-74
2021/07/17 04:47:08;;;;;;;5.30;3.45;;;21.80;99.90;;;;;;5036320;28;20033;-74
2021/07/17 04:49:34;;;;;;;6.22;3.67;;;21.80;99.90;;;;;;5045889;28;20029;-74
2021/07/17 04:51:59;;;;;;;4.20;3.80;;;21.70;99.90;;;;;;5043699;28;20029;-73
2021/07/17 04:54:25;;;;;;;4.40;3.72;;;21.70;99.90;;;;;;5047602;28;20391;-74
2021/07/17 04:56:51;;;;;;;5.53;3.70;;;21.70;99.90;;;;;;5043213;28;20091;-74
2021/07/17 04:59:17;;;;;;;6.55;3.20;;;21.70;99.90;;;;;;5035087;28;20052;-72
2021/07/17 05:01:42;;;;;;;4.35;3.83;;;21.70;99.90;;;;;;5040760;28;20104;-73
2021/07/17 05:04:09;;;;;;;3.75;3.45;;;21.70;99.90;;;;;;5039826;28;20029;-74
2021/07/17 05:06:35;;;;;;;5.90;3.30;;;21.70;99.90;;;;;;5044092;28;20512;-74
2021/07/17 05:09:00;;;;;;;6.60;4.18;;;21.70;99.90;;;;;;5046201;28;20037;-73
2021/07/17 05:11:26;;;;;;;4.40;3.92;;;21.40;99.90;;;;;;5039849;28;20498;-74
2021/07/17 05:13:51;;;;;;;4.70;4.30;;;21.60;99.90;;;;;;5059543;28;20379;-73
2021/07/17 05:16:17;;;;;;;5.82;4.53;;;21.70;99.90;;;;;;5022960;28;20111;-73
2021/07/17 05:18:43;;;;;;;4.55;4.15;;;21.70;99.90;;;;;;5021853;28;20054;-73
2021/07/17 05:21:08;;;;;;;4.35;3.95;;;21.60;99.90;;;;;;5005310;28;20407;-74
2021/07/17 05:23:34;;;;;;;4.78;4.32;;;21.60;99.90;;;;;;4996679;28;20115;-74
2021/07/17 05:25:59;;;;;;;4.35;4.05;;;21.70;99.90;;;;;;5006058;28;20176;-74
2021/07/17 05:28:25;;;;;;;5.97;4.97;;;21.60;99.90;;;;;;4998965;28;20435;-75
2021/07/17 05:30:51;;;;;;;4.45;4.05;;;21.60;99.90;;;;;;4990138;28;20041;-75
2021/07/17 05:33:17;;;;;;;7.22;4.25;;;21.60;99.90;;;;;;5021590;28;20518;-74
2021/07/17 05:35:42;;;;;;;4.20;3.80;;;21.60;99.90;;;;;;5010976;28;20038;-75
2021/07/17 05:38:08;;;;;;;6.30;4.05;;;21.60;99.90;;;;;;4995526;28;20034;-75
2021/07/17 05:40:35;;;;;;;5.18;4.47;;;21.60;99.90;;;;;;5002437;28;20141;-74
2021/07/17 05:43:00;;;;;;;4.68;3.88;;;21.60;99.90;;;;;;5005280;28;20034;-75
2021/07/17 05:45:26;;;;;;;5.07;3.85;;;21.70;99.90;;;;;;5003856;28;20061;-75
2021/07/17 05:47:52;;;;;;;4.00;3.42;;;21.60;99.90;;;;;;5006883;28;20034;-74
2021/07/17 05:50:19;;;;;;;6.85;4.15;;;21.70;99.90;;;;;;5011037;28;20054;-74
2021/07/17 05:52:47;;;;;;;4.43;3.92;;;21.70;99.90;;;;;;5007868;28;20061;-74
2021/07/17 05:55:13;;;;;;;5.20;3.72;;;21.80;99.90;;;;;;5007860;28;20124;-73
2021/07/17 05:57:39;;;;;;;4.45;3.83;;;21.80;99.90;;;;;;5011257;28;20468;-74
2021/07/17 06:00:07;;;;;;;4.90;3.38;;;21.80;99.90;;;;;;5010343;28;20583;-75
2021/07/17 06:02:32;;;;;;;3.42;3.13;;;21.80;99.90;;;;;;4999286;28;20130;-73
2021/07/17 06:04:58;;;;;;;4.95;3.35;;;21.90;99.90;;;;;;5016642;28;20448;-72
2021/07/17 06:07:25;;;;;;;4.00;3.45;;;22.00;99.90;;;;;;5007300;28;20170;-74
2021/07/17 06:09:51;;;;;;;4.57;3.50;;;22.00;99.90;;;;;;4994872;28;20101;-73
2021/07/17 06:12:16;;;;;;;5.53;3.53;;;22.00;99.90;;;;;;5003662;28;20033;-72
2021/07/17 06:14:42;;;;;;;5.60;3.40;;;22.00;99.90;;;;;;5005622;28;20052;-72
2021/07/17 06:17:11;;;;;;;5.85;2.90;;;22.10;99.90;;;;;;5016408;28;20037;-73
2021/07/17 06:19:39;;;;;;;4.13;3.22;;;22.10;99.90;;;;;;5043576;28;20136;-72
2021/07/17 06:22:05;;;;;;;5.40;3.53;;;22.10;99.90;;;;;;5042981;28;20113;-73
2021/07/17 06:24:31;;;;;;;6.75;3.33;;;22.20;99.90;;;;;;5031852;28;20038;-72
2021/07/17 06:26:56;;;;;;;4.00;3.28;;;22.20;99.90;;;;;;5049981;28;20052;-73
2021/07/17 06:29:22;;;;;;;3.50;3.15;;;22.30;99.90;;;;;;5056771;28;20039;-73
2021/07/17 06:31:47;;;;;;;5.13;3.13;;;22.40;99.90;;;;;;5042121;28;20116;-73
2021/07/17 06:34:14;;;;;;;4.45;3.10;;;22.40;99.90;;;;;;5042978;28;20046;-74
2021/07/17 06:36:39;;;;;;;6.07;2.92;;;22.50;99.90;;;;;;5019189;28;20038;-73
2021/07/17 06:39:57;;;;;;;4.10;2.45;;;22.50;99.90;;;;;;5038229;28;20036;-72
2021/07/17 06:42:23;;;;;;;5.57;2.92;;;22.50;99.90;;;;;;4998785;28;20041;-64
2021/07/17 06:44:49;;;;;;;3.45;2.80;;;22.60;99.90;;;;;;5048255;28;20045;-75
2021/07/17 06:47:14;;;;;;;2.90;2.40;;;22.60;99.90;;;;;;5036050;28;20044;-74
2021/07/17 06:49:40;;;;;;;3.13;2.42;;;22.50;99.90;;;;;;5045003;28;20132;-73
2021/07/17 06:52:05;;;;;;;3.05;2.40;;;22.70;99.90;;;;;;5028465;28;20106;-74
2021/07/17 06:54:31;;;;;;;2.92;2.72;;;22.70;99.90;;;;;;5027661;28;20049;-74
2021/07/17 06:56:56;;;;;;;4.32;2.67;;;22.70;99.90;;;;;;5034251;28;20152;-74
2021/07/17 06:59:40;;;;;;;2.65;2.45;;;22.80;99.90;;;;;;5034207;28;20501;-74
2021/07/17 07:02:06;;;;;;;5.18;2.58;;;22.80;99.90;;;;;;4978504;28;20152;-74
2021/07/17 07:04:43;;;;;;;5.50;2.25;;;22.80;99.90;;;;;;5039153;28;20124;-74
2021/07/17 07:07:09;;;;;;;3.80;2.63;;;22.90;99.90;;;;;;5022504;28;20052;-74
2021/07/17 07:09:34;;;;;;;6.18;2.67;;;22.90;99.90;;;;;;5039435;28;20482;-74
2021/07/17 07:12:00;;;;;;;4.03;2.22;;;22.90;99.90;;;;;;5039000;28;20068;-71
2021/07/17 07:14:26;;;;;;;2.13;1.73;;;23.00;99.90;;;;;;5036821;28;20129;-72
2021/07/17 07:16:52;;;;;;;3.75;1.67;;;23.00;99.90;;;;;;5025486;28;20068;-71
2021/07/17 07:19:17;;;;;;;2.53;1.70;;;23.20;99.90;;;;;;5048413;28;20039;-72
2021/07/17 07:21:43;;;;;;;2.75;1.77;;;23.30;99.90;;;;;;5023523;28;20084;-73
2021/07/17 07:24:09;;;;;;;2.35;1.80;;;23.50;99.90;;;;;;5042661;28;20402;-73
2021/07/17 07:26:35;;;;;;;2.58;1.77;;;23.60;99.90;;;;;;5060073;28;20124;-73
2021/07/17 07:29:01;;;;;;;1.95;1.20;;;23.80;99.90;;;;;;5049222;28;20140;-73
2021/07/17 07:31:27;;;;;;;4.28;1.50;;;23.90;99.90;;;;;;5040758;28;20041;-72
2021/07/17 07:33:52;;;;;;;1.83;1.35;;;24.00;99.90;;;;;;5039026;28;20041;-72
2021/07/17 07:36:19;;;;;;;1.02;0.90;;;24.10;99.90;;;;;;5031321;28;20125;-72
2021/07/17 07:38:44;;;;;;;3.13;1.48;;;24.10;99.90;;;;;;5036100;28;20030;-72
2021/07/17 07:41:12;;;;;;;5.20;1.75;;;24.10;99.90;;;;;;5046898;28;20041;-72
2021/07/17 07:43:38;;;;;;;2.05;1.13;;;24.20;99.90;;;;;;5025696;28;20052;-71
2021/07/17 07:46:05;;;;;;;4.18;1.10;;;24.10;99.90;;;;;;5027641;28;20067;-72
2021/07/17 07:48:31;;;;;;;1.80;1.20;;;24.10;99.90;;;;;;5041270;28;20407;-72
2021/07/17 07:50:58;;;;;;;2.45;1.45;;;24.10;99.90;;;;;;5027306;28;20037;-72
2021/07/17 07:53:23;;;;;;;1.55;1.40;;;24.10;99.90;;;;;;5028558;28;20033;-55
2021/07/17 07:55:49;;;;;;;1.42;1.25;;;24.20;99.90;;;;;;5045994;28;20048;-72
2021/07/17 07:58:14;;;;;;;3.20;1.63;;;24.30;99.90;;;;;;5037694;28;20037;-72
2021/07/17 08:00:40;;;;;;;1.70;1.60;;;24.40;99.90;;;;;;5045073;28;20380;-72
2021/07/17 08:03:06;;;;;;;4.18;2.10;;;24.50;99.90;;;;;;5039668;28;20079;-73
2021/07/17 08:05:31;;;;;;;2.47;1.42;;;24.60;99.90;;;;;;5045584;28;20430;-72
2021/07/17 08:07:57;;;;;;;4.80;1.20;;;24.60;99.90;;;;;;5043521;28;20041;-72
2021/07/17 08:10:23;;;;;;;2.35;0.95;;;24.80;99.90;;;;;;5049208;28;20040;-72
2021/07/17 08:12:49;;;;;;;2.05;1.55;;;24.80;99.90;;;;;;5037775;28;20518;-73
2021/07/17 08:15:15;;;;;;;3.80;1.42;;;24.80;99.90;;;;;;5038616;28;20071;-73
2021/07/17 08:17:41;;;;;;;2.97;1.17;;;24.70;99.90;;;;;;5036563;28;20052;-73
2021/07/17 08:20:09;;;;;;;1.50;1.40;;;24.80;99.90;;;;;;5036466;28;20049;-73
2021/07/17 08:22:37;;;;;;;1.80;1.25;;;24.80;99.90;;;;;;5038594;28;20041;-73
2021/07/17 08:25:04;;;;;;;1.35;1.00;;;24.80;99.90;;;;;;5034605;28;20037;-73
2021/07/17 08:27:29;;;;;;;4.32;1.52;;;24.80;99.90;;;;;;5030482;28;20435;-72
2021/07/17 08:29:55;;;;;;;5.10;1.65;;;24.80;99.90;;;;;;5041544;28;20029;-73
2021/07/17 08:32:26;;;;;;;4.90;1.73;;;24.90;99.90;;;;;;5031218;28;20586;-72
2021/07/17 08:34:53;;;;;;;4.85;1.50;;;25.00;99.90;;;;;;5025384;28;20061;-73
2021/07/17 08:37:19;;;;;;;4.72;2.03;;;25.20;99.90;;;;;;5051547;28;20444;-73
2021/07/17 08:39:45;;;;;;;4.07;1.73;;;25.30;99.90;;;;;;5034486;28;20160;-73
2021/07/17 08:42:14;;;;;;;4.10;1.42;;;25.40;99.90;;;;;;5032320;28;20037;-74
2021/07/17 08:44:41;;;;;;;3.30;1.48;;;25.50;99.90;;;;;;5027201;28;20036;-73
2021/07/17 08:47:09;;;;;;;3.75;1.95;;;25.40;99.90;;;;;;5037482;28;20482;-74
2021/07/17 08:49:37;;;;;;;3.40;1.65;;;25.50;99.90;;;;;;5036176;28;20509;-73
2021/07/17 08:52:06;;;;;;;2.67;1.45;;;25.60;99.90;;;;;;5063878;28;20052;-73
2021/07/17 08:54:32;;;;;;;1.88;1.60;;;25.80;99.90;;;;;;5044441;28;20500;-74
2021/07/17 08:56:58;;;;;;;3.03;2.58;;;25.90;99.90;;;;;;5046200;28;20116;-75
2021/07/17 08:59:23;;;;;;;4.68;2.75;;;26.00;99.90;;;;;;5044142;28;20178;-60
2021/07/17 09:01:50;;;;;;;4.88;3.20;;;26.00;99.90;;;;;;5039443;28;20033;-73
2021/07/17 09:04:24;;;;;;;3.05;2.60;;;26.00;99.90;;;;;;5048181;28;20048;-74
2021/07/17 09:06:49;;;;;;;3.72;2.53;;;25.90;99.90;;;;;;5046486;28;20040;-74
2021/07/17 09:09:29;;;;;;;4.50;2.10;;;26.00;99.90;;;;;;5038916;28;20041;-74
2021/07/17 09:11:54;;;;;;;3.08;2.58;;;26.20;99.90;;;;;;5020263;28;20048;-70
2021/07/17 09:14:44;;;;;;;6.72;2.70;;;26.30;99.90;;;;;;5032016;28;20124;-74
2021/07/17 09:17:09;;;;;;;2.90;2.40;;;26.20;99.90;;;;;;5011288;28;20042;-74
2021/07/17 09:19:50;;;;;;;2.90;2.53;;;26.10;99.90;;;;;;5041617;28;20029;-75
2021/07/17 09:22:39;;;;;;;3.65;2.38;;;26.20;99.90;;;;;;5040071;28;20494;-75
2021/07/17 09:25:16;;;;;;;3.25;2.40;;;26.30;99.90;;;;;;4980007;28;20041;-74
2021/07/17 09:27:41;;;;;;;2.90;2.70;;;26.30;99.90;;;;;;5037501;28;20171;-74
2021/07/17 09:30:33;;;;;;;4.03;2.60;;;26.40;99.90;;;;;;5036398;28;20127;-74
2021/07/17 09:33:01;;;;;;;2.97;2.53;;;26.50;99.90;;;;;;4993028;28;20041;-75
2021/07/17 09:35:27;;;;;;;3.72;2.58;;;26.50;99.90;;;;;;5041431;28;20093;-74
2021/07/17 09:37:55;;;;;;;3.53;2.47;;;26.40;99.90;;;;;;5029612;28;20125;-75
2021/07/17 09:40:21;;;;;;;5.15;3.63;;;26.60;99.90;;;;;;5043397;28;20033;-75
2021/07/17 09:42:47;;;;;;;3.88;3.10;;;26.70;99.90;;;;;;5042350;28;20036;-75
2021/07/17 09:45:32;;;;;;;3.92;2.92;;;26.80;99.90;;;;;;5041315;28;20033;-74
2021/07/17 09:47:57;;;;;;;3.55;2.83;;;26.80;99.90;;;;;;5029603;28;20492;-75
2021/07/17 09:50:23;;;;;;;4.13;2.72;;;26.90;99.90;;;;;;5033756;28;20052;-75
2021/07/17 09:52:48;;;;;;;2.40;2.20;;;27.00;99.90;;;;;;5035454;28;20132;-75
2021/07/17 09:55:16;;;;;;;2.40;2.20;;;26.80;99.90;;;;;;5029353;28;20488;-75
2021/07/17 09:57:42;;;;;;;4.30;2.13;;;26.90;99.90;;;;;;5024157;28;20087;-75
2021/07/17 10:00:11;;;;;;;2.55;2.35;;;27.00;99.90;;;;;;5034436;28;20065;-75
2021/07/17 10:02:39;;;;;;;1.73;1.58;;;27.10;99.90;;;;;;5037501;28;20038;-75
2021/07/17 10:05:09;;;;;;;2.75;1.70;;;27.00;99.90;;;;;;5043165;28;20456;-75
2021/07/17 10:07:36;;;;;;;1.83;1.65;;;27.10;99.90;;;;;;5034939;28;20060;-75
2021/07/17 10:10:03;;;;;;;4.63;1.38;;;27.20;99.90;;;;;;5032490;28;20028;-74
2021/07/17 10:12:43;;;;;;;2.95;1.50;;;27.10;99.90;;;;;;5037174;28;20033;-75
2021/07/17 10:15:16;;;;;;;1.70;1.45;;;27.30;99.00;;;;;;5037265;28;20091;-75
2021/07/17 10:17:43;;;;;;;1.95;1.42;;;27.50;98.80;;;;;;5039977;28;20045;-75
2021/07/17 10:20:12;;;;;;;1.70;1.60;;;27.60;98.90;;;;;;5029362;28;20098;-75
2021/07/17 10:22:38;;;;;;;1.92;1.52;;;27.60;98.10;;;;;;5025531;28;20491;-75
2021/07/17 10:25:10;;;;;;;2.10;1.90;;;27.70;98.00;;;;;;5041411;28;20068;-75
2021/07/17 10:27:36;;;;;;;1.90;1.75;;;27.70;97.90;;;;;;5027510;28;20032;-75
2021/07/17 10:30:07;;;;;;;1.73;1.52;;;27.90;97.80;;;;;;5030000;28;20029;-75
2021/07/17 10:32:33;;;;;;;2.38;1.80;;;28.00;97.00;;;;;;5032167;28;20088;-76
2021/07/17 10:34:58;;;;;;;2.95;1.58;;;27.90;97.10;;;;;;5020184;28;20037;-75
2021/07/17 10:37:30;;;;;;;1.90;1.80;;;28.00;97.00;;;;;;5029805;28;20858;-58
2021/07/17 10:40:14;;;;;;;1.80;1.48;;;28.20;96.50;;;;;;5026653;28;20088;-74
2021/07/17 10:42:47;;;;;;;;;;;28.40;94.10;;;;;;5039410;28;20120;-75
2021/07/17 10:45:31;;;;;;;2.30;2.00;;;28.80;95.50;;;;;;5045726;28;19971;-75
2021/07/17 10:47:57;;;;;;;2.42;1.85;;;28.90;95.10;;;;;;5047778;28;20398;-76
2021/07/17 10:50:33;;;;;;;2.63;1.67;;;28.90;94.70;;;;;;5049549;28;20060;-76
2021/07/17 10:52:59;;;;;;;1.40;1.30;;;29.00;94.10;;;;;;5047987;28;20040;-73
2021/07/17 10:55:33;;;;;;;1.67;1.58;;;29.10;92.90;;;;;;5045727;28;20045;-73
2021/07/17 10:58:24;;;;;;;3.28;1.85;;;29.40;93.30;;;;;;5054898;28;20040;-76
2021/07/17 11:00:51;;;;;;;2.28;1.55;;;29.60;93.00;;;;;;5044427;28;20033;-76
2021/07/17 11:03:21;;;;;;;2.33;1.67;;;29.80;92.40;;;;;;5031343;28;20037;-76
2021/07/17 11:05:49;;;;;;;3.90;2.40;;;30.20;91.10;;;;;;5040415;28;20044;-77
2021/07/17 11:08:38;;;;;;;2.22;1.63;;;30.80;88.80;;;;;;5046977;28;20049;-77
2021/07/17 11:11:28;;;;;;;2.70;1.65;;;31.80;86.70;;;;;;5011380;28;20494;-76
2021/07/17 11:14:24;;;;;;;3.83;1.63;;;33.40;79.40;;;;;;5055108;28;20068;-77
2021/07/17 11:16:53;;;;;;;1.75;1.65;;;34.40;69.60;;;;;;5018729;28;20355;-70
2021/07/17 11:19:23;;;;;;;2.10;1.90;;;34.50;68.00;;;;;;5042615;28;20041;-77
2021/07/17 11:21:49;;;;;;;2.13;1.95;;;35.10;66.20;;;;;;5028997;28;20112;-76
2021/07/17 11:24:14;;;;;;;3.28;2.05;;;34.70;69.90;;;;;;5030374;28;20045;-76
2021/07/17 11:26:40;;;;;;;4.07;2.05;;;35.10;68.00;;;;;;5029961;28;20380;-76
2021/07/17 11:29:11;;;;;;;2.13;2.03;;;34.60;68.40;;;;;;5048080;28;20234;-75
2021/07/17 11:31:39;;;;;;;2.90;2.00;;;34.10;66.00;;;;;;5032318;28;20052;-75
2021/07/17 11:34:17;;;;;;;2.33;1.77;;;33.40;69.90;;;;;;5037199;28;20072;-75
2021/07/17 11:37:00;;;;;;;2.28;1.83;;;33.20;71.70;;;;;;5023686;28;20037;-75
2021/07/17 11:39:29;;;;;;;2.72;1.88;;;33.10;68.40;;;;;;5030521;28;20037;-74
2021/07/17 11:41:58;;;;;;;2.00;1.80;;;32.90;68.30;;;;;;5010392;28;20139;-59
2021/07/17 11:44:28;;;;;;;2.58;2.00;;;32.80;71.40;;;;;;5014623;28;20075;-76
2021/07/17 11:47:05;;;;;;;2.83;1.90;;;33.00;71.40;;;;;;5039648;28;20040;-74
2021/07/17 11:49:34;;;;;;;2.17;2.00;;;33.10;71.20;;;;;;5014733;28;20034;-75
2021/07/17 11:52:03;;;;;;;2.47;2.08;;;33.50;69.40;;;;;;5016888;28;20037;-76
2021/07/17 11:54:44;;;;;;;1.90;1.77;;;32.90;69.20;;;;;;5029032;28;20435;-76
2021/07/17 11:57:28;;;;;;;3.45;2.38;;;33.00;69.60;;;;;;5025072;28;20029;-75
2021/07/17 11:59:54;;;;;;;2.10;1.90;;;33.60;69.10;;;;;;5037636;28;20061;-75
2021/07/17 12:02:21;;;;;;;2.45;2.15;;;34.50;67.80;;;;;;5033361;28;20083;-75
2021/07/17 12:04:56;;;;;;;2.78;1.70;;;34.80;69.20;;;;;;5028372;28;20399;-75
2021/07/17 12:07:26;;;;;;;1.70;1.63;;;34.90;59.20;;;;;;5036956;28;20045;-75
2021/07/17 12:09:54;;;;;;;2.08;1.92;;;35.80;55.60;;;;;;5040997;28;20033;-75
2021/07/17 12:12:35;;;;;;;2.22;2.03;;;36.00;56.10;;;;;;5042752;28;20055;-76
2021/07/17 12:15:15;;;;;;;3.75;2.30;;;35.90;54.30;;;;;;5014783;28;20592;-76
2021/07/17 12:17:52;;;;;;;1.80;1.70;;;36.50;54.50;;;;;;5039524;28;20057;-75
2021/07/17 12:20:34;;;;;;;1.90;1.70;;;38.60;51.00;;;;;;5039027;28;20506;-76
2021/07/17 12:23:11;;;;;;;2.55;1.77;;;36.90;47.90;;;;;;5014982;28;20052;-76
2021/07/17 12:25:51;;;;;;;2.15;1.60;;;35.20;53.10;;;;;;5048583;28;20071;-75
2021/07/17 12:28:21;;;;;;;2.20;1.95;;;34.30;57.70;;;;;;5041242;28;20048;-75
2021/07/17 12:30:48;;;;;;;2.40;2.00;;;34.30;57.90;;;;;;5040525;28;20058;-75
2021/07/17 12:33:26;;;;;;;2.17;2.00;;;34.50;57.80;;;;;;5034293;28;20349;-75
2021/07/17 12:36:03;;;;;;;2.42;1.85;;;35.00;56.00;;;;;;5049409;28;20074;-75
2021/07/17 12:38:32;;;;;;;2.40;2.20;;;35.20;54.90;;;;;;5029663;28;20037;-75
2021/07/17 12:41:10;;;;;;;2.22;2.08;;;35.90;54.40;;;;;;5037509;28;20041;-75
2021/07/17 12:43:48;;;;;;;2.20;2.00;;;35.80;54.30;;;;;;5028826;28;20394;-75
2021/07/17 12:46:19;;;;;;;2.20;2.00;;;35.60;55.20;;;;;;5038737;28;20048;-75
2021/07/17 12:49:07;;;;;;;1.90;1.75;;;36.40;52.80;;;;;;5035230;28;20063;-75
2021/07/17 12:51:37;;;;;;;2.30;2.10;;;36.10;49.70;;;;;;5008414;28;20121;-75
2021/07/17 12:54:08;;;;;;;2.67;2.47;;;36.30;49.80;;;;;;5028175;28;21490;-74
2021/07/17 12:56:40;;;;;;;2.97;2.78;;;37.50;47.50;;;;;;5028533;28;20045;-74
2021/07/17 12:59:09;;;;;;;2.10;2.00;;;36.20;47.80;;;;;;5023050;28;20033;-74
2021/07/17 13:01:36;;;;;;;2.28;1.83;;;35.10;52.10;;;;;;5043492;28;20302;-75